createdAt,value
2019-03-08T00:02:12.946Z,7.57
2019-03-08T00:04:59.179Z,8.73
2019-03-08T00:07:45.368Z,10.13
2019-03-08T00:10:31.760Z,8.23
2019-03-08T00:13:18.088Z,8.93
2019-03-08T00:16:04.290Z,8.63
2019-03-08T00:18:50.589Z,7.23
2019-03-08T00:21:36.980Z,7.80
2019-03-08T00:24:23.191Z,7.30
2019-03-08T00:27:09.084Z,6.07
2019-03-08T00:29:55.559Z,6.10
2019-03-08T00:32:41.803Z,5.33
2019-03-08T00:35:27.727Z,7.37
2019-03-08T00:38:13.987Z,6.83
2019-03-08T00:41:00.219Z,4.77
2019-03-08T00:43:46.735Z,5.63
2019-03-08T00:46:32.847Z,4.73
2019-03-08T00:49:19.144Z,4.70
2019-03-08T00:52:05.249Z,8.83
2019-03-08T00:54:51.472Z,5.43
2019-03-08T00:57:37.738Z,4.53
2019-03-08T01:00:24.183Z,6.07
2019-03-08T01:03:10.596Z,6.80
2019-03-08T01:05:57.005Z,4.87
2019-03-08T01:08:43.313Z,5.57
2019-03-08T01:11:29.598Z,2.60
2019-03-08T01:14:15.904Z,6.37
2019-03-08T01:17:02.175Z,4.00
2019-03-08T01:19:48.493Z,2.27
2019-03-08T01:22:34.824Z,3.20
2019-03-08T01:25:21.522Z,5.80
2019-03-08T01:28:11.631Z,4.00
2019-03-08T01:30:57.583Z,5.07
2019-03-08T01:33:44.155Z,3.27
2019-03-08T01:36:30.356Z,5.90
2019-03-08T01:39:16.707Z,1.60
2019-03-08T01:42:03.187Z,3.83
2019-03-08T01:44:49.472Z,4.80
2019-03-08T01:47:35.759Z,7.57
2019-03-08T01:50:22.108Z,8.80
2019-03-08T01:53:08.359Z,4.57
2019-03-08T01:55:54.727Z,4.37
2019-03-08T01:58:41.045Z,6.53
2019-03-08T02:01:27.376Z,5.00
2019-03-08T02:04:13.852Z,3.50
2019-03-08T02:07:00.147Z,4.80
2019-03-08T02:09:50.736Z,3.97
2019-03-08T02:12:36.894Z,6.60
2019-03-08T02:15:23.184Z,9.77
2019-03-08T02:18:10.004Z,8.43
2019-03-08T02:20:55.862Z,4.27
2019-03-08T02:23:42.158Z,7.40
2019-03-08T02:26:27.979Z,4.83
2019-03-08T02:29:14.392Z,8.60
2019-03-08T02:32:00.711Z,8.00
2019-03-08T02:34:47.046Z,10.33
2019-03-08T02:37:33.577Z,5.67
2019-03-08T02:40:24.527Z,5.57
2019-03-08T02:43:11.629Z,5.93
2019-03-08T02:45:57.785Z,4.23
2019-03-08T02:48:44.205Z,9.70
2019-03-08T02:51:30.435Z,2.73
2019-03-08T02:54:16.300Z,9.03
2019-03-08T02:57:02.465Z,5.97
2019-03-08T02:59:48.788Z,9.40
2019-03-08T03:02:35.040Z,7.40
2019-03-08T03:05:21.332Z,4.83
2019-03-08T03:08:07.535Z,8.67
2019-03-08T03:10:54.040Z,5.50
2019-03-08T03:13:40.300Z,4.37
2019-03-08T03:16:26.560Z,4.80
2019-03-08T03:19:13.007Z,8.53
2019-03-08T03:21:59.251Z,8.63
2019-03-08T03:24:45.546Z,9.73
2019-03-08T03:27:31.923Z,5.37
2019-03-08T03:30:18.282Z,6.90
2019-03-08T03:33:04.396Z,5.03
2019-03-08T03:35:50.692Z,12.40
2019-03-08T03:38:36.987Z,5.87
2019-03-08T03:41:23.311Z,9.37
2019-03-08T03:44:09.168Z,6.40
2019-03-08T03:46:55.322Z,9.17
2019-03-08T03:49:41.932Z,8.77
2019-03-08T03:52:27.739Z,9.63
2019-03-08T03:55:14.113Z,11.33
2019-03-08T03:58:00.495Z,6.20
2019-03-08T04:00:46.672Z,7.23
2019-03-08T04:03:32.982Z,6.40
2019-03-08T04:06:19.283Z,7.63
2019-03-08T04:09:10.159Z,12.00
2019-03-08T04:11:56.007Z,7.03
2019-03-08T04:14:42.437Z,11.43
2019-03-08T04:17:28.692Z,7.43
2019-03-08T04:20:15.136Z,8.50
2019-03-08T04:23:01.481Z,5.57
2019-03-08T04:25:47.728Z,6.70
2019-03-08T04:28:34.058Z,9.50
2019-03-08T04:31:20.583Z,9.93
2019-03-08T04:34:08.275Z,5.67
2019-03-08T04:36:54.400Z,13.47
2019-03-08T04:39:40.862Z,10.20
2019-03-08T04:42:27.111Z,6.03
2019-03-08T04:45:13.440Z,5.97
2019-03-08T04:48:00.043Z,8.67
2019-03-08T04:50:47.859Z,10.13
2019-03-08T04:53:33.896Z,7.27
2019-03-08T04:56:20.454Z,9.47
2019-03-08T04:59:06.774Z,12.23
2019-03-08T05:01:53.034Z,10.53
2019-03-08T05:04:39.564Z,10.77
2019-03-08T05:07:25.842Z,11.33
2019-03-08T05:10:12.787Z,9.40
2019-03-08T05:12:59.439Z,8.83
2019-03-08T05:15:45.820Z,12.47
2019-03-08T05:18:33.051Z,16.73
2019-03-08T05:21:19.536Z,7.43
2019-03-08T05:24:05.764Z,9.83
2019-03-08T05:26:52.171Z,11.43
2019-03-08T05:29:38.404Z,16.00
2019-03-08T05:32:24.781Z,10.57
2019-03-08T05:35:12.456Z,8.80
2019-03-08T05:37:58.500Z,7.53
2019-03-08T05:40:44.897Z,9.73
2019-03-08T05:43:31.273Z,10.53
2019-03-08T05:46:17.539Z,14.23
2019-03-08T05:49:03.843Z,12.00
2019-03-08T05:51:50.218Z,8.57
2019-03-08T05:54:36.497Z,10.63
2019-03-08T05:57:23.949Z,11.73
2019-03-08T06:00:10.279Z,13.43
2019-03-08T06:02:56.411Z,10.00
2019-03-08T06:05:42.304Z,12.87
2019-03-08T06:08:28.736Z,13.77
2019-03-08T06:11:14.952Z,11.07
2019-03-08T06:14:00.771Z,11.63
2019-03-08T06:16:47.187Z,12.63
2019-03-08T06:19:33.562Z,13.13
2019-03-08T06:22:19.482Z,10.60
2019-03-08T06:25:05.897Z,11.67
2019-03-08T06:27:52.018Z,9.80
2019-03-08T06:30:38.268Z,12.97
2019-03-08T06:33:24.571Z,12.87
2019-03-08T06:36:10.756Z,13.17
2019-03-08T06:38:57.180Z,10.30
2019-03-08T06:41:43.409Z,12.53
2019-03-08T06:44:29.751Z,12.80
2019-03-08T06:47:16.128Z,10.77
2019-03-08T06:50:02.424Z,14.50
2019-03-08T06:52:48.827Z,15.33
2019-03-08T06:55:35.343Z,12.90
2019-03-08T06:58:31.800Z,17.47
2019-03-08T07:01:27.162Z,15.07
2019-03-08T07:04:13.679Z,15.03
2019-03-08T07:06:59.982Z,18.37
2019-03-08T07:09:45.836Z,17.23
2019-03-08T07:12:32.347Z,22.47
2019-03-08T07:15:18.519Z,15.83
2019-03-08T07:18:12.243Z,19.57
2019-03-08T07:21:17.828Z,15.93
2019-03-08T07:24:23.520Z,17.97
2019-03-08T07:27:20.667Z,14.63
2019-03-08T07:30:26.612Z,16.70
2019-03-08T07:33:32.489Z,20.73
2019-03-08T07:36:36.982Z,23.70
2019-03-08T07:39:42.412Z,18.40
2019-03-08T07:42:38.831Z,18.97
2019-03-08T07:46:02.609Z,14.60
2019-03-08T07:49:14.120Z,16.30
2019-03-08T07:52:13.097Z,14.50
2019-03-08T07:55:14.301Z,15.47
2019-03-08T07:58:32.079Z,14.10
2019-03-08T08:01:40.061Z,17.00
2019-03-08T08:04:44.332Z,17.03
2019-03-08T08:07:49.722Z,15.37
2019-03-08T08:10:55.352Z,15.47
2019-03-08T08:14:13.080Z,16.00
2019-03-08T08:17:06.122Z,17.10
2019-03-08T08:19:45.744Z,12.27
2019-03-08T08:22:40.116Z,18.30
2019-03-08T08:25:36.546Z,11.63
2019-03-08T08:28:34.456Z,14.40
2019-03-08T08:31:22.488Z,13.17
2019-03-08T08:34:28.280Z,11.37
2019-03-08T08:37:18.840Z,11.13
2019-03-08T08:40:00.425Z,13.70
2019-03-08T08:42:47.873Z,8.77
2019-03-08T08:45:33.999Z,13.33
2019-03-08T08:48:20.341Z,11.93
2019-03-08T08:51:05.223Z,10.73
2019-03-08T08:53:55.963Z,9.33
2019-03-08T08:56:42.224Z,10.00
2019-03-08T08:59:39.216Z,10.07
2019-03-08T09:02:34.692Z,8.57
2019-03-08T09:05:15.224Z,13.03
2019-03-08T09:08:05.788Z,13.00
2019-03-08T09:10:49.421Z,11.13
2019-03-08T09:13:32.474Z,10.80
2019-03-08T09:16:08.732Z,10.53
2019-03-08T09:18:54.780Z,12.40
2019-03-08T09:21:44.871Z,13.27
2019-03-08T09:24:24.532Z,9.47
2019-03-08T09:27:19.351Z,9.97
2019-03-08T09:29:57.843Z,8.07
2019-03-08T09:32:41.902Z,7.67
2019-03-08T09:35:29.568Z,10.07
2019-03-08T09:38:32.332Z,10.07
2019-03-08T09:41:18.725Z,7.20
2019-03-08T09:44:05.256Z,8.17
2019-03-08T09:46:51.724Z,7.83
2019-03-08T09:49:44.475Z,8.03
2019-03-08T09:52:26.331Z,7.90
2019-03-08T09:54:59.586Z,7.73
2019-03-08T09:57:46.000Z,8.30
2019-03-08T10:00:48.699Z,5.87
2019-03-08T10:03:26.474Z,6.23
2019-03-08T10:06:06.458Z,12.23
2019-03-08T10:08:40.975Z,10.47
2019-03-08T10:11:28.543Z,10.67
2019-03-08T10:14:09.756Z,8.43
2019-03-08T10:16:51.064Z,10.10
2019-03-08T10:19:37.571Z,8.60
2019-03-08T10:22:30.945Z,7.53
2019-03-08T10:25:11.396Z,9.03
2019-03-08T10:27:55.517Z,8.07
2019-03-08T10:30:38.910Z,8.43
2019-03-08T10:33:46.210Z,9.43
2019-03-08T10:36:20.302Z,8.23
2019-03-08T10:38:56.232Z,8.47
2019-03-08T10:41:49.822Z,8.27
2019-03-08T10:44:40.318Z,7.83
2019-03-08T10:47:24.124Z,8.07
2019-03-08T10:50:14.805Z,6.97
2019-03-08T10:52:51.068Z,8.80
2019-03-08T10:55:50.747Z,7.27
2019-03-08T10:58:41.285Z,9.40
2019-03-08T11:01:34.731Z,6.80
2019-03-08T11:04:31.119Z,8.17
2019-03-08T11:07:15.026Z,9.03
2019-03-08T11:09:56.823Z,10.53
2019-03-08T11:12:42.768Z,7.50
2019-03-08T11:15:42.413Z,9.10
2019-03-08T11:18:39.049Z,10.03
2019-03-08T11:21:35.703Z,7.13
2019-03-08T11:24:21.899Z,8.17
2019-03-08T11:27:24.667Z,8.47
2019-03-08T11:30:18.027Z,7.07
2019-03-08T11:33:18.029Z,7.67
2019-03-08T11:36:00.144Z,6.60
2019-03-08T11:38:33.113Z,8.27
2019-03-08T11:41:35.851Z,6.90
2019-03-08T11:44:26.226Z,7.67
2019-03-08T11:47:26.142Z,8.33
2019-03-08T11:50:09.780Z,7.03
2019-03-08T11:53:03.358Z,8.27
2019-03-08T11:56:06.003Z,5.70
2019-03-08T11:58:45.204Z,7.43
2019-03-08T12:01:23.632Z,6.13
2019-03-08T12:04:00.787Z,7.23
2019-03-08T12:06:36.674Z,9.40
2019-03-08T12:09:25.723Z,8.60
2019-03-08T12:12:11.940Z,7.13
2019-03-08T12:14:58.454Z,7.80
2019-03-08T12:17:51.821Z,9.90
2019-03-08T12:20:42.340Z,7.17
2019-03-08T12:23:34.999Z,7.03
2019-03-08T12:26:28.846Z,7.30
2019-03-08T12:29:10.650Z,10.17
2019-03-08T12:31:58.217Z,6.60
2019-03-08T12:34:36.941Z,6.37
2019-03-08T12:37:24.735Z,7.10
2019-03-08T12:40:07.668Z,8.23
2019-03-08T12:43:13.853Z,6.60
2019-03-08T12:45:56.220Z,7.17
2019-03-08T12:48:51.210Z,6.60
2019-03-08T12:51:33.442Z,6.93
2019-03-08T12:54:19.916Z,6.30
2019-03-08T12:57:04.407Z,7.93
2019-03-08T12:59:54.974Z,5.47
2019-03-08T13:02:41.075Z,6.47
2019-03-08T13:05:22.995Z,10.23
2019-03-08T13:08:22.685Z,6.90
2019-03-08T13:10:50.649Z,6.07
2019-03-08T13:13:18.993Z,6.77
2019-03-08T13:15:47.059Z,5.37
2019-03-08T13:18:15.084Z,4.90
2019-03-08T13:20:43.721Z,6.83
2019-03-08T13:23:11.745Z,6.27
2019-03-08T13:25:39.844Z,6.67
2019-03-08T13:28:07.822Z,7.00
2019-03-08T13:30:36.041Z,6.90
2019-03-08T13:33:04.081Z,6.63
2019-03-08T13:35:32.077Z,6.33
2019-03-08T13:38:00.269Z,5.40
2019-03-08T13:40:28.317Z,6.57
2019-03-08T13:42:56.381Z,6.70
2019-03-08T13:45:24.342Z,8.03
2019-03-08T13:47:52.454Z,6.60
2019-03-08T13:50:20.448Z,5.20
2019-03-08T13:52:48.867Z,7.50
2019-03-08T13:55:17.100Z,5.57
2019-03-08T13:57:45.131Z,6.20
2019-03-08T14:00:13.855Z,8.30
2019-03-08T14:02:42.192Z,6.40
2019-03-08T14:05:10.579Z,6.60
2019-03-08T14:07:38.715Z,7.33
2019-03-08T14:10:08.337Z,6.63
2019-03-08T14:12:36.644Z,6.30
2019-03-08T14:15:04.800Z,7.47
2019-03-08T14:17:32.873Z,6.30
2019-03-08T14:20:01.066Z,8.20
2019-03-08T14:22:30.677Z,6.07
2019-03-08T14:24:59.112Z,4.70
2019-03-08T14:27:29.389Z,8.03
2019-03-08T14:29:59.232Z,6.30
2019-03-08T14:32:28.035Z,5.70
2019-03-08T14:34:56.096Z,6.63
2019-03-08T14:37:24.494Z,8.50
2019-03-08T14:39:52.683Z,6.73
2019-03-08T14:42:43.248Z,8.30
2019-03-08T14:45:26.651Z,5.13
2019-03-08T14:47:56.548Z,7.23
2019-03-08T14:50:24.628Z,4.33
2019-03-08T14:52:55.287Z,6.70
2019-03-08T14:55:23.795Z,6.47
2019-03-08T14:57:55.382Z,6.33
2019-03-08T15:00:25.396Z,4.47
2019-03-08T15:02:52.331Z,3.87
2019-03-08T15:05:20.547Z,5.20
2019-03-08T15:07:48.894Z,4.40
2019-03-08T15:10:17.667Z,4.60
2019-03-08T15:12:49.050Z,3.87
2019-03-08T15:15:16.514Z,4.47
2019-03-08T15:17:44.552Z,4.07
2019-03-08T15:20:15.403Z,4.73
2019-03-08T15:22:43.697Z,6.13
2019-03-08T15:25:12.520Z,6.53
2019-03-08T15:27:41.724Z,3.77
2019-03-08T15:30:11.159Z,3.97
2019-03-08T15:32:39.241Z,4.80
2019-03-08T15:35:07.935Z,3.83
2019-03-08T15:37:43.891Z,6.23
2019-03-08T15:40:07.849Z,3.30
2019-03-08T15:42:36.704Z,4.50
2019-03-08T15:45:07.827Z,5.93
2019-03-08T15:47:36.255Z,2.77
2019-03-08T15:50:08.313Z,4.13
2019-03-08T15:52:36.586Z,3.67
2019-03-08T15:55:04.845Z,2.40
2019-03-08T15:57:32.745Z,2.40
2019-03-08T16:00:00.992Z,0.80
2019-03-08T16:02:29.457Z,2.30
2019-03-08T16:04:57.624Z,0.90
2019-03-08T16:07:27.165Z,1.77
2019-03-08T16:09:56.263Z,2.73
2019-03-08T16:12:24.988Z,0.70
2019-03-08T16:14:53.154Z,0.60
2019-03-08T16:17:21.201Z,1.30
2019-03-08T16:19:49.170Z,0.53
2019-03-08T16:22:17.182Z,0.50
2019-03-08T16:24:48.094Z,0.30
2019-03-08T16:27:16.286Z,1.33
2019-03-08T16:29:44.545Z,0.60
2019-03-08T16:32:34.612Z,0.43
2019-03-08T16:35:03.285Z,1.83
2019-03-08T16:37:45.718Z,0.57
2019-03-08T16:40:39.140Z,0.40
2019-03-08T16:43:15.570Z,0.50
2019-03-08T16:45:54.896Z,0.40
2019-03-08T16:48:27.975Z,0.40
2019-03-08T16:51:15.432Z,0.40
2019-03-08T16:53:51.012Z,0.40
2019-03-08T16:56:25.040Z,1.33
2019-03-08T16:59:11.441Z,0.50
2019-03-08T17:01:48.973Z,0.40
2019-03-08T17:04:36.969Z,0.30
2019-03-08T17:07:16.125Z,0.40
2019-03-08T17:10:13.251Z,0.40
2019-03-08T17:13:03.705Z,0.60
2019-03-08T17:16:03.503Z,0.67
2019-03-08T17:18:44.920Z,0.30
2019-03-08T17:21:39.141Z,0.67
2019-03-08T17:24:32.701Z,0.50
2019-03-08T17:27:27.384Z,0.40
2019-03-08T17:30:24.142Z,0.93
2019-03-08T17:33:10.073Z,0.90
2019-03-08T17:36:15.908Z,0.90
2019-03-08T17:39:06.392Z,0.90
2019-03-08T17:42:06.056Z,0.77
2019-03-08T17:44:50.569Z,1.13
2019-03-08T17:47:26.842Z,1.90
2019-03-08T17:50:12.841Z,3.00
2019-03-08T17:52:54.341Z,1.97
2019-03-08T17:55:41.840Z,1.60
2019-03-08T17:58:44.666Z,1.90
2019-03-08T18:01:34.260Z,1.97
2019-03-08T18:04:30.787Z,1.40
2019-03-08T18:07:18.410Z,1.70
2019-03-08T18:10:04.699Z,1.67
2019-03-08T18:12:51.189Z,0.90
2019-03-08T18:15:31.004Z,0.73
2019-03-08T18:18:17.332Z,0.97
2019-03-08T18:20:52.658Z,1.00
2019-03-08T18:23:44.564Z,1.10
2019-03-08T18:26:31.027Z,0.80
2019-03-08T18:29:21.521Z,0.73
2019-03-08T18:32:24.036Z,2.70
2019-03-08T18:35:11.787Z,3.00
2019-03-08T18:38:04.211Z,1.70
2019-03-08T18:40:49.781Z,3.20
2019-03-08T18:43:55.912Z,1.73
2019-03-08T18:46:33.879Z,0.83
2019-03-08T18:49:20.300Z,1.00
2019-03-08T18:52:06.816Z,0.83
2019-03-08T18:54:42.101Z,1.60
2019-03-08T18:57:29.592Z,0.77
2019-03-08T19:00:16.116Z,1.67
2019-03-08T19:03:12.857Z,1.77
2019-03-08T19:05:51.125Z,1.10
2019-03-08T19:08:29.777Z,1.30
2019-03-08T19:11:26.474Z,0.80
2019-03-08T19:14:16.893Z,1.00
2019-03-08T19:17:14.019Z,0.50
2019-03-08T19:19:56.736Z,1.13
2019-03-08T19:22:53.249Z,0.83
2019-03-08T19:25:38.282Z,1.00
2019-03-08T19:28:19.214Z,0.70
2019-03-08T19:31:13.387Z,1.07
2019-03-08T19:34:01.254Z,2.43
2019-03-08T19:37:03.539Z,1.10
2019-03-08T19:39:47.236Z,1.10
2019-03-08T19:42:40.701Z,1.03
2019-03-08T19:45:22.124Z,2.07
2019-03-08T19:48:06.240Z,0.80
2019-03-08T19:50:53.689Z,0.77
2019-03-08T19:53:44.068Z,0.60
2019-03-08T19:56:31.986Z,1.27
2019-03-08T19:59:08.085Z,0.80
2019-03-08T20:02:01.847Z,0.90
2019-03-08T20:04:47.595Z,0.57
2019-03-08T20:07:30.062Z,0.70
2019-03-08T20:10:05.325Z,0.60
2019-03-08T20:12:59.258Z,0.63
2019-03-08T20:15:39.540Z,0.80
2019-03-08T20:18:17.659Z,0.70
2019-03-08T20:21:03.941Z,0.30
2019-03-08T20:23:44.508Z,0.60
2019-03-08T20:26:35.083Z,0.57
2019-03-08T20:29:25.801Z,0.50
2019-03-08T20:32:17.128Z,0.63
2019-03-08T20:35:07.803Z,3.13
2019-03-08T20:37:55.256Z,0.87
2019-03-08T20:40:30.870Z,1.20
2019-03-08T20:43:03.366Z,1.23
2019-03-08T20:45:54.202Z,0.57
2019-03-08T20:48:22.573Z,0.80
2019-03-08T20:50:54.211Z,0.60
2019-03-08T20:53:22.414Z,0.50
2019-03-08T20:55:50.705Z,0.80
2019-03-08T20:58:18.969Z,0.43
2019-03-08T21:00:47.065Z,0.60
2019-03-08T21:03:15.244Z,0.43
2019-03-08T21:05:43.477Z,1.73
2019-03-08T21:08:11.879Z,0.83
2019-03-08T21:10:40.010Z,0.50
2019-03-08T21:13:08.042Z,0.40
2019-03-08T21:15:36.689Z,1.30
2019-03-08T21:18:05.015Z,0.20
2019-03-08T21:20:33.055Z,0.50
2019-03-08T21:23:01.781Z,2.47
2019-03-08T21:25:31.797Z,1.03
2019-03-08T21:28:00.161Z,0.30
2019-03-08T21:30:28.373Z,0.30
2019-03-08T21:32:56.520Z,0.80
2019-03-08T21:35:24.591Z,0.60
2019-03-08T21:37:52.638Z,1.40
2019-03-08T21:40:20.622Z,0.70
2019-03-08T21:42:48.701Z,1.80
2019-03-08T21:45:17.043Z,0.40
2019-03-08T21:47:45.214Z,0.50
2019-03-08T21:50:13.493Z,0.30
2019-03-08T21:52:41.749Z,0.40
2019-03-08T21:55:09.734Z,2.00
2019-03-08T21:57:37.824Z,1.37
2019-03-08T22:00:13.416Z,1.90
2019-03-08T22:02:41.532Z,1.10
2019-03-08T22:05:09.875Z,2.30
2019-03-08T22:07:38.140Z,1.03
2019-03-08T22:10:24.787Z,0.87
2019-03-08T22:12:53.246Z,0.60
2019-03-08T22:15:24.666Z,1.37
2019-03-08T22:17:52.840Z,0.83
2019-03-08T22:20:20.922Z,0.30
2019-03-08T22:22:48.999Z,1.27
2019-03-08T22:25:17.223Z,3.57
2019-03-08T22:27:45.202Z,0.47
2019-03-08T22:30:13.999Z,0.90
2019-03-08T22:32:42.076Z,0.40
2019-03-08T22:35:10.388Z,0.33
2019-03-08T22:37:38.654Z,1.10
2019-03-08T22:40:07.219Z,2.07
2019-03-08T22:42:35.699Z,1.10
2019-03-08T22:45:03.804Z,0.77
2019-03-08T22:47:31.859Z,0.30
2019-03-08T22:49:59.956Z,0.70
2019-03-08T22:52:28.097Z,1.30
2019-03-08T22:54:56.418Z,0.60
2019-03-08T22:57:24.560Z,0.40
2019-03-08T22:59:52.619Z,0.40
2019-03-08T23:02:20.928Z,1.93
2019-03-08T23:04:49.315Z,2.27
2019-03-08T23:07:18.099Z,4.27
2019-03-08T23:09:46.409Z,2.40
2019-03-08T23:12:14.532Z,1.83
2019-03-08T23:14:44.229Z,1.30
2019-03-08T23:17:12.464Z,1.37
2019-03-08T23:19:40.570Z,2.20
2019-03-08T23:22:08.688Z,1.00
2019-03-08T23:24:36.879Z,1.47
2019-03-08T23:27:21.825Z,0.20
2019-03-08T23:29:55.980Z,0.90
2019-03-08T23:32:27.324Z,1.60
2019-03-08T23:34:55.456Z,1.10
2019-03-08T23:37:23.502Z,1.70
2019-03-08T23:39:53.348Z,0.50
2019-03-08T23:42:21.492Z,1.07
2019-03-08T23:44:49.664Z,0.53
2019-03-08T23:47:19.231Z,1.27
2019-03-08T23:50:07.837Z,1.27
2019-03-08T23:52:35.700Z,1.63
2019-03-08T23:55:03.967Z,0.60
2019-03-08T23:57:31.841Z,0.37
2019-03-08T23:59:59.879Z,0.20
